createdAt,value
2022-10-31T00:01:20.725Z,11.76
2022-10-31T00:03:48.447Z,11.76
2022-10-31T00:06:16.142Z,11.73
2022-10-31T00:08:43.639Z,11.74
2022-10-31T00:11:11.729Z,11.74
2022-10-31T00:13:40.740Z,11.70
2022-10-31T00:16:16.001Z,11.68
2022-10-31T00:18:43.568Z,11.66
2022-10-31T00:21:11.107Z,11.66
2022-10-31T00:23:38.714Z,11.63
2022-10-31T00:26:07.830Z,11.62
2022-10-31T00:28:35.896Z,11.61
2022-10-31T00:31:06.785Z,11.60
2022-10-31T00:33:37.450Z,11.57
2022-10-31T00:36:06.549Z,11.58
2022-10-31T00:38:34.309Z,11.53
2022-10-31T00:41:01.873Z,11.49
2022-10-31T00:43:29.551Z,11.45
2022-10-31T00:45:57.229Z,11.44
2022-10-31T00:48:27.331Z,11.44
2022-10-31T00:50:55.258Z,11.41
2022-10-31T00:53:24.526Z,11.39
2022-10-31T00:55:52.129Z,11.34
2022-10-31T00:58:20.399Z,11.31
2022-10-31T01:00:55.650Z,11.32
2022-10-31T01:03:24.347Z,11.30
2022-10-31T01:06:00.923Z,11.26
2022-10-31T01:08:29.413Z,11.23
2022-10-31T01:11:02.218Z,11.22
2022-10-31T01:13:29.865Z,11.26
2022-10-31T01:15:58.148Z,11.23
2022-10-31T01:18:27.178Z,11.20
2022-10-31T01:21:04.400Z,11.20
2022-10-31T01:23:32.738Z,11.21
2022-10-31T01:26:06.620Z,11.14
2022-10-31T01:28:35.011Z,11.09
2022-10-31T01:31:04.057Z,11.06
2022-10-31T01:33:31.633Z,11.03
2022-10-31T01:35:59.286Z,11.03
2022-10-31T01:38:28.218Z,11.00
2022-10-31T01:40:55.759Z,11.00
2022-10-31T01:43:23.279Z,11.00
2022-10-31T01:45:54.621Z,11.00
2022-10-31T01:48:27.083Z,10.95
2022-10-31T01:50:56.749Z,10.93
2022-10-31T01:53:26.971Z,10.93
2022-10-31T01:55:56.298Z,10.89
2022-10-31T01:58:28.507Z,10.89
2022-10-31T02:01:03.298Z,10.85
2022-10-31T02:03:34.939Z,10.85
2022-10-31T02:06:05.017Z,10.83
2022-10-31T02:08:35.204Z,10.83
2022-10-31T02:11:04.127Z,10.82
2022-10-31T02:13:32.147Z,10.81
2022-10-31T02:16:01.079Z,10.83
2022-10-31T02:18:32.293Z,10.82
2022-10-31T02:21:08.955Z,10.82
2022-10-31T02:24:10.638Z,10.82
2022-10-31T02:26:59.959Z,10.81
2022-10-31T02:30:04.244Z,10.81
2022-10-31T02:32:43.747Z,10.78
2022-10-31T02:35:19.082Z,10.75
2022-10-31T02:37:53.170Z,10.69
2022-10-31T02:40:25.468Z,10.71
2022-10-31T02:43:31.031Z,10.68
2022-10-31T02:46:03.794Z,10.65
2022-10-31T02:48:38.930Z,10.67
2022-10-31T02:51:07.689Z,10.67
2022-10-31T02:53:38.569Z,10.64
2022-10-31T02:56:13.062Z,10.61
2022-10-31T02:58:44.359Z,10.59
2022-10-31T03:01:26.757Z,10.59
2022-10-31T03:04:10.575Z,10.57
2022-10-31T03:06:43.452Z,10.54
2022-10-31T03:09:22.872Z,10.50
2022-10-31T03:11:59.490Z,10.49
2022-10-31T03:14:37.897Z,10.50
2022-10-31T03:17:09.430Z,10.48
2022-10-31T03:19:41.984Z,10.49
2022-10-31T03:22:17.348Z,10.47
2022-10-31T03:24:46.707Z,10.49
2022-10-31T03:27:20.055Z,10.49
2022-10-31T03:29:51.066Z,10.45
2022-10-31T03:32:23.583Z,10.37
2022-10-31T03:34:56.585Z,10.35
2022-10-31T03:37:27.721Z,10.31
2022-10-31T03:39:57.243Z,10.28
2022-10-31T03:42:27.466Z,10.28
2022-10-31T03:45:00.799Z,10.26
2022-10-31T03:47:29.303Z,10.24
2022-10-31T03:49:59.008Z,10.21
2022-10-31T03:52:32.531Z,10.19
2022-10-31T03:55:07.607Z,10.18
2022-10-31T03:57:39.165Z,10.15
2022-10-31T04:00:10.897Z,10.12
2022-10-31T04:02:52.167Z,10.13
2022-10-31T04:05:22.499Z,10.11
2022-10-31T04:07:56.566Z,10.09
2022-10-31T04:10:30.224Z,10.07
2022-10-31T04:13:05.572Z,10.03
2022-10-31T04:15:56.620Z,9.94
2022-10-31T04:18:25.030Z,9.89
2022-10-31T04:21:01.986Z,9.91
2022-10-31T04:23:30.463Z,9.90
2022-10-31T04:25:58.409Z,9.87
2022-10-31T04:28:25.993Z,9.80
2022-10-31T04:30:54.279Z,9.78
2022-10-31T04:33:23.561Z,9.79
2022-10-31T04:35:51.819Z,9.75
2022-10-31T04:38:20.943Z,9.72
2022-10-31T04:40:49.959Z,9.70
2022-10-31T04:43:36.023Z,9.66
2022-10-31T04:46:03.647Z,9.63
2022-10-31T04:48:31.494Z,9.61
2022-10-31T04:51:02.174Z,9.59
2022-10-31T04:53:31.579Z,9.53
2022-10-31T04:56:19.069Z,9.52
2022-10-31T04:58:49.114Z,9.52
2022-10-31T05:01:16.965Z,9.54
2022-10-31T05:03:46.230Z,9.50
2022-10-31T05:06:13.841Z,9.47
2022-10-31T05:08:44.635Z,9.44
2022-10-31T05:11:13.157Z,9.41
2022-10-31T05:13:40.942Z,9.37
2022-10-31T05:16:11.011Z,9.29
2022-10-31T05:19:16.889Z,9.28
2022-10-31T05:22:03.213Z,9.28
2022-10-31T05:24:32.119Z,9.29
2022-10-31T05:26:59.648Z,9.27
2022-10-31T05:29:27.199Z,9.27
2022-10-31T05:31:54.851Z,9.27
2022-10-31T05:35:00.399Z,9.23
2022-10-31T05:37:46.398Z,9.20
2022-10-31T05:40:16.862Z,9.17
2022-10-31T05:42:45.290Z,9.19
2022-10-31T05:45:15.811Z,9.14
2022-10-31T05:47:53.644Z,9.12
2022-10-31T05:50:39.756Z,9.09
2022-10-31T05:53:11.082Z,9.06
2022-10-31T05:55:41.537Z,9.06
2022-10-31T05:58:19.351Z,9.06
2022-10-31T06:00:54.977Z,9.06
2022-10-31T06:03:22.613Z,9.07
2022-10-31T06:05:57.798Z,9.06
2022-10-31T06:08:30.752Z,9.06
2022-10-31T06:11:03.555Z,9.06
2022-10-31T06:13:49.683Z,9.08
2022-10-31T06:16:22.680Z,9.09
2022-10-31T06:18:51.529Z,9.14
2022-10-31T06:21:19.446Z,9.17
2022-10-31T06:23:49.478Z,9.19
2022-10-31T06:26:37.132Z,9.21
2022-10-31T06:29:04.896Z,9.20
2022-10-31T06:32:01.420Z,9.19
2022-10-31T06:34:30.292Z,9.20
2022-10-31T06:36:59.132Z,9.26
2022-10-31T06:39:28.539Z,9.27
2022-10-31T06:41:57.498Z,9.31
2022-10-31T06:44:27.291Z,9.38
2022-10-31T06:47:00.543Z,9.43
2022-10-31T06:49:46.751Z,9.46
2022-10-31T06:52:17.724Z,9.49
2022-10-31T06:54:45.286Z,9.52
2022-10-31T06:57:17.393Z,9.52
2022-10-31T06:59:45.833Z,9.60
2022-10-31T07:02:18.879Z,9.68
2022-10-31T07:04:46.487Z,9.76
2022-10-31T07:07:15.799Z,9.80
2022-10-31T07:09:43.449Z,9.87
2022-10-31T07:12:12.743Z,9.96
2022-10-31T07:14:51.634Z,9.99
2022-10-31T07:17:19.185Z,10.06
2022-10-31T07:19:47.354Z,10.15
2022-10-31T07:22:17.645Z,10.25
2022-10-31T07:24:45.790Z,10.36
2022-10-31T07:27:42.605Z,10.44
2022-10-31T07:30:14.805Z,10.56
2022-10-31T07:32:45.168Z,10.64
2022-10-31T07:35:17.686Z,10.77
2022-10-31T07:37:51.213Z,11.16
2022-10-31T07:40:20.263Z,11.46
2022-10-31T07:42:51.037Z,11.50
2022-10-31T07:45:53.134Z,11.80
2022-10-31T07:48:39.256Z,12.04
2022-10-31T07:51:25.769Z,12.22
2022-10-31T07:54:12.510Z,12.34
2022-10-31T07:56:40.604Z,12.54
2022-10-31T07:59:08.724Z,12.62
2022-10-31T08:01:37.601Z,12.70
2022-10-31T08:04:25.095Z,12.79
2022-10-31T08:07:11.284Z,12.92
2022-10-31T08:09:41.033Z,12.90
2022-10-31T08:12:19.496Z,12.88
2022-10-31T08:14:47.647Z,12.88
2022-10-31T08:17:19.307Z,12.89
2022-10-31T08:19:53.309Z,13.00
2022-10-31T08:22:24.884Z,13.34
2022-10-31T08:24:52.493Z,13.43
2022-10-31T08:27:20.075Z,13.46
2022-10-31T08:29:47.814Z,13.47
2022-10-31T08:32:15.578Z,13.48
2022-10-31T08:35:04.683Z,13.59
2022-10-31T08:37:32.278Z,13.65
2022-10-31T08:39:59.968Z,13.77
2022-10-31T08:42:27.597Z,13.91
2022-10-31T08:44:55.136Z,13.99
2022-10-31T08:47:23.668Z,14.07
2022-10-31T08:49:51.318Z,14.19
2022-10-31T08:52:21.580Z,14.61
2022-10-31T08:54:49.397Z,15.12
2022-10-31T08:57:56.930Z,15.56
2022-10-31T09:00:25.627Z,15.84
2022-10-31T09:03:10.920Z,16.13
2022-10-31T09:05:38.543Z,16.47
2022-10-31T09:08:14.752Z,16.60
2022-10-31T09:10:45.897Z,16.62
2022-10-31T09:13:18.676Z,16.57
2022-10-31T09:16:21.790Z,16.51
2022-10-31T09:18:49.388Z,16.65
2022-10-31T09:21:18.043Z,16.74
2022-10-31T09:23:48.800Z,16.76
2022-10-31T09:26:16.598Z,16.79
2022-10-31T09:29:04.518Z,16.76
2022-10-31T09:31:33.124Z,16.79
2022-10-31T09:34:05.849Z,16.90
2022-10-31T09:36:40.007Z,16.92
2022-10-31T09:39:16.150Z,17.01
2022-10-31T09:41:59.149Z,17.19
2022-10-31T09:44:32.019Z,17.39
2022-10-31T09:47:07.023Z,17.56
2022-10-31T09:49:52.612Z,17.68
2022-10-31T09:52:25.396Z,17.76
2022-10-31T09:55:02.441Z,17.87
2022-10-31T09:57:35.064Z,18.04
2022-10-31T10:00:06.388Z,18.21
2022-10-31T10:02:46.430Z,18.28
2022-10-31T10:05:18.238Z,18.35
2022-10-31T10:07:54.799Z,18.39
2022-10-31T10:10:50.884Z,18.26
2022-10-31T10:13:57.066Z,18.14
2022-10-31T10:16:38.757Z,18.10
2022-10-31T10:19:21.156Z,17.96
2022-10-31T10:21:58.391Z,17.96
2022-10-31T10:24:38.926Z,18.12
2022-10-31T10:27:30.029Z,18.18
2022-10-31T10:30:04.673Z,18.28
2022-10-31T10:32:38.558Z,18.38
2022-10-31T10:35:19.196Z,18.46
2022-10-31T10:37:51.493Z,18.55
2022-10-31T10:40:22.852Z,18.68
2022-10-31T10:43:21.529Z,18.81
2022-10-31T10:46:11.875Z,18.98
2022-10-31T10:48:45.334Z,19.14
2022-10-31T10:51:38.991Z,19.24
2022-10-31T10:54:22.661Z,19.33
2022-10-31T10:57:00.400Z,19.53
2022-10-31T10:59:31.360Z,19.55
2022-10-31T11:02:00.675Z,19.64
2022-10-31T11:04:33.937Z,19.75
2022-10-31T11:07:03.836Z,19.69
2022-10-31T11:09:31.616Z,19.54
2022-10-31T11:12:00.201Z,19.41
2022-10-31T11:14:30.428Z,19.33
2022-10-31T11:17:17.816Z,19.27
2022-10-31T11:19:45.595Z,19.29
2022-10-31T11:22:18.693Z,19.40
2022-10-31T11:24:47.844Z,19.37
2022-10-31T11:27:18.430Z,19.46
2022-10-31T11:29:47.645Z,19.65
2022-10-31T11:32:22.060Z,19.67
2022-10-31T11:34:53.711Z,19.74
2022-10-31T11:37:24.234Z,19.66
2022-10-31T11:39:55.026Z,19.33
2022-10-31T11:42:25.080Z,19.26
2022-10-31T11:44:56.941Z,19.19
2022-10-31T11:47:29.220Z,19.24
2022-10-31T11:49:58.720Z,19.15
2022-10-31T11:52:29.180Z,19.21
2022-10-31T11:54:59.368Z,19.21
2022-10-31T11:57:29.695Z,19.30
2022-10-31T12:00:01.118Z,19.38
2022-10-31T12:02:29.290Z,19.49
2022-10-31T12:05:04.573Z,19.69
2022-10-31T12:07:32.544Z,19.80
2022-10-31T12:10:00.182Z,19.92
2022-10-31T12:12:50.628Z,20.07
2022-10-31T12:15:30.894Z,20.18
2022-10-31T12:18:14.391Z,20.28
2022-10-31T12:20:52.369Z,20.45
2022-10-31T12:23:28.171Z,20.53
2022-10-31T12:26:14.555Z,20.48
2022-10-31T12:28:58.678Z,20.40
2022-10-31T12:31:41.172Z,20.50
2022-10-31T12:34:55.459Z,20.48
2022-10-31T12:37:37.699Z,20.51
2022-10-31T12:40:21.890Z,20.40
2022-10-31T12:43:04.052Z,20.31
2022-10-31T12:45:55.481Z,20.08
2022-10-31T12:48:57.259Z,19.79
2022-10-31T12:51:34.687Z,19.59
2022-10-31T12:54:21.458Z,19.33
2022-10-31T12:56:58.715Z,19.24
2022-10-31T12:59:32.455Z,19.22
2022-10-31T13:02:10.899Z,19.27
2022-10-31T13:04:46.215Z,19.42
2022-10-31T13:07:20.584Z,19.84
2022-10-31T13:09:55.410Z,20.73
2022-10-31T13:12:24.613Z,21.27
2022-10-31T13:14:55.573Z,22.11
2022-10-31T13:17:31.913Z,22.40
2022-10-31T13:20:14.267Z,22.56
2022-10-31T13:22:45.874Z,22.40
2022-10-31T13:25:17.794Z,22.37
2022-10-31T13:27:51.366Z,22.31
2022-10-31T13:30:22.094Z,22.20
2022-10-31T13:32:53.482Z,22.26
2022-10-31T13:35:29.940Z,22.83
2022-10-31T13:38:16.184Z,23.24
2022-10-31T13:40:52.449Z,23.68
2022-10-31T13:43:29.350Z,23.74
2022-10-31T13:45:57.733Z,23.18
2022-10-31T13:48:37.219Z,23.18
2022-10-31T13:51:08.471Z,23.47
2022-10-31T13:53:42.959Z,23.49
2022-10-31T13:56:20.641Z,23.77
2022-10-31T13:59:20.507Z,23.44
2022-10-31T14:01:51.699Z,23.40
2022-10-31T14:04:25.279Z,22.81
2022-10-31T14:06:59.556Z,22.26
2022-10-31T14:09:35.803Z,22.02
2022-10-31T14:12:06.881Z,21.99
2022-10-31T14:14:43.407Z,21.71
2022-10-31T14:17:20.411Z,21.38
2022-10-31T14:20:00.957Z,20.99
2022-10-31T14:22:32.896Z,20.68
2022-10-31T14:25:00.631Z,20.91
2022-10-31T14:27:53.235Z,20.75
2022-10-31T14:30:23.882Z,20.51
2022-10-31T14:32:54.904Z,20.51
2022-10-31T14:35:28.367Z,20.50
2022-10-31T14:38:13.603Z,20.36
2022-10-31T14:41:01.238Z,20.44
2022-10-31T14:43:41.102Z,20.31
2022-10-31T14:46:17.685Z,20.29
2022-10-31T14:49:00.280Z,20.29
2022-10-31T14:51:40.426Z,20.26
2022-10-31T14:54:16.270Z,20.16
2022-10-31T14:56:50.191Z,19.96
2022-10-31T14:59:24.229Z,19.83
2022-10-31T15:01:58.196Z,19.91
2022-10-31T15:04:27.992Z,19.87
2022-10-31T15:07:02.766Z,19.73
2022-10-31T15:09:33.870Z,19.69
2022-10-31T15:12:02.398Z,19.54
2022-10-31T15:14:32.101Z,19.48
2022-10-31T15:17:02.942Z,19.35
2022-10-31T15:19:34.463Z,19.24
2022-10-31T15:22:02.601Z,19.07
2022-10-31T15:24:35.843Z,19.00
2022-10-31T15:27:05.286Z,18.94
2022-10-31T15:29:33.793Z,18.78
2022-10-31T15:32:02.833Z,18.61
2022-10-31T15:34:37.710Z,18.49
2022-10-31T15:37:05.701Z,18.47
2022-10-31T15:39:35.302Z,18.34
2022-10-31T15:42:03.539Z,18.00
2022-10-31T15:44:33.755Z,17.91
2022-10-31T15:47:03.945Z,17.86
2022-10-31T15:49:37.139Z,17.85
2022-10-31T15:52:09.119Z,17.79
2022-10-31T15:54:45.593Z,17.70
2022-10-31T15:57:14.024Z,17.61
2022-10-31T15:59:44.835Z,17.46
2022-10-31T16:02:14.894Z,17.35
2022-10-31T16:04:51.167Z,17.22
2022-10-31T16:07:23.172Z,17.11
2022-10-31T16:09:55.055Z,16.98
2022-10-31T16:12:23.355Z,16.85
2022-10-31T16:14:52.632Z,16.78
2022-10-31T16:17:23.680Z,16.68
2022-10-31T16:19:56.178Z,16.60
2022-10-31T16:22:28.373Z,16.50
2022-10-31T16:25:02.905Z,16.42
2022-10-31T16:27:33.630Z,16.41
2022-10-31T16:30:05.241Z,16.19
2022-10-31T16:32:36.080Z,16.02
2022-10-31T16:35:20.754Z,15.94
2022-10-31T16:37:48.517Z,15.93
2022-10-31T16:40:18.607Z,15.91
2022-10-31T16:42:48.051Z,15.88
2022-10-31T16:45:18.559Z,15.89
2022-10-31T16:47:46.439Z,15.88
2022-10-31T16:50:17.132Z,15.89
2022-10-31T16:53:08.414Z,15.84
2022-10-31T16:55:35.845Z,15.83
2022-10-31T16:58:04.150Z,15.81
2022-10-31T17:00:32.538Z,15.75
2022-10-31T17:03:00.122Z,15.62
2022-10-31T17:05:30.147Z,15.64
2022-10-31T17:07:58.304Z,15.63
2022-10-31T17:10:27.290Z,15.55
2022-10-31T17:12:57.734Z,15.46
2022-10-31T17:15:27.659Z,15.38
2022-10-31T17:17:55.985Z,15.33
2022-10-31T17:20:26.534Z,15.21
2022-10-31T17:22:54.542Z,15.17
2022-10-31T17:25:24.506Z,15.11
2022-10-31T17:27:52.875Z,15.01
2022-10-31T17:30:23.410Z,14.98
2022-10-31T17:32:51.721Z,14.95
2022-10-31T17:35:20.189Z,14.94
2022-10-31T17:37:48.327Z,14.94
2022-10-31T17:40:17.998Z,14.93
2022-10-31T17:42:50.449Z,14.88
2022-10-31T17:45:18.367Z,14.89
2022-10-31T17:47:49.552Z,14.88
2022-10-31T17:50:17.527Z,14.91
2022-10-31T17:52:45.071Z,14.90
2022-10-31T17:55:12.955Z,14.87
2022-10-31T17:57:41.017Z,14.83
2022-10-31T18:00:11.538Z,14.75
2022-10-31T18:02:39.431Z,14.67
2022-10-31T18:05:09.203Z,14.60
2022-10-31T18:07:36.819Z,14.54
2022-10-31T18:10:05.194Z,14.52
2022-10-31T18:12:33.015Z,14.48
2022-10-31T18:15:00.554Z,14.47
2022-10-31T18:17:28.123Z,14.47
2022-10-31T18:19:55.754Z,14.41
2022-10-31T18:22:24.659Z,14.41
2022-10-31T18:24:52.190Z,14.40
2022-10-31T18:27:19.714Z,14.42
2022-10-31T18:29:47.266Z,14.39
2022-10-31T18:32:14.901Z,14.38
2022-10-31T18:34:42.424Z,14.35
2022-10-31T18:37:10.076Z,14.34
2022-10-31T18:39:38.927Z,14.33
2022-10-31T18:42:06.543Z,14.31
2022-10-31T18:44:34.257Z,14.26
2022-10-31T18:47:01.794Z,14.20
2022-10-31T18:49:32.591Z,14.18
2022-10-31T18:52:00.563Z,14.18
2022-10-31T18:54:28.127Z,14.17
2022-10-31T18:56:56.985Z,14.17
2022-10-31T18:59:24.514Z,14.15
2022-10-31T19:01:52.190Z,14.13
2022-10-31T19:04:19.992Z,14.12
2022-10-31T19:06:47.512Z,14.15
2022-10-31T19:09:15.172Z,14.16
2022-10-31T19:11:42.673Z,14.15
2022-10-31T19:14:14.710Z,14.13
2022-10-31T19:16:42.248Z,14.08
2022-10-31T19:19:10.537Z,13.99
2022-10-31T19:21:38.096Z,13.98
2022-10-31T19:24:06.339Z,13.96
2022-10-31T19:26:34.842Z,13.90
2022-10-31T19:29:02.605Z,13.83
2022-10-31T19:31:31.507Z,13.80
2022-10-31T19:33:59.066Z,13.74
2022-10-31T19:36:27.534Z,13.73
2022-10-31T19:38:55.092Z,13.70
2022-10-31T19:41:24.662Z,13.65
2022-10-31T19:43:52.361Z,13.59
2022-10-31T19:46:40.453Z,13.57
2022-10-31T19:49:11.716Z,13.56
2022-10-31T19:51:39.228Z,13.51
2022-10-31T19:54:07.608Z,13.52
2022-10-31T19:56:35.525Z,13.48
2022-10-31T19:59:03.938Z,13.47
2022-10-31T20:01:31.642Z,13.47
2022-10-31T20:03:59.291Z,13.44
2022-10-31T20:06:31.894Z,13.38
2022-10-31T20:08:59.936Z,13.33
2022-10-31T20:11:29.025Z,13.33
2022-10-31T20:13:57.862Z,13.29
2022-10-31T20:16:26.338Z,13.27
2022-10-31T20:18:54.017Z,13.25
2022-10-31T20:21:24.622Z,13.23
2022-10-31T20:23:57.628Z,13.23
2022-10-31T20:26:25.858Z,13.21
2022-10-31T20:28:53.803Z,13.18
2022-10-31T20:31:24.695Z,13.12
2022-10-31T20:33:53.360Z,13.08
2022-10-31T20:36:22.864Z,13.03
2022-10-31T20:38:51.348Z,12.95
2022-10-31T20:41:20.995Z,12.95
2022-10-31T20:43:49.160Z,12.93
2022-10-31T20:46:18.492Z,12.94
2022-10-31T20:48:46.836Z,12.90
2022-10-31T20:53:49.603Z,12.84
2022-10-31T20:56:21.289Z,12.79
2022-10-31T20:58:49.346Z,12.76
2022-10-31T21:01:19.220Z,12.78
2022-10-31T21:03:47.631Z,12.73
2022-10-31T21:06:16.061Z,12.68
2022-10-31T21:08:44.291Z,12.66
2022-10-31T21:11:13.787Z,12.62
2022-10-31T21:13:45.075Z,12.58
2022-10-31T21:16:15.098Z,12.56
2022-10-31T21:18:45.255Z,12.54
2022-10-31T21:21:14.721Z,12.50
2022-10-31T21:23:43.973Z,12.46
2022-10-31T21:26:14.655Z,12.42
2022-10-31T21:28:43.639Z,12.38
2022-10-31T21:31:13.705Z,12.35
2022-10-31T21:33:41.347Z,12.36
2022-10-31T21:36:09.657Z,12.34
2022-10-31T21:38:38.678Z,12.32
2022-10-31T21:41:09.370Z,12.28
2022-10-31T21:43:37.895Z,12.30
2022-10-31T21:46:08.501Z,12.40
2022-10-31T21:48:39.032Z,12.42
2022-10-31T21:51:08.943Z,12.42
2022-10-31T21:53:54.802Z,12.42
2022-10-31T21:56:23.007Z,12.41
2022-10-31T21:58:51.218Z,12.39
2022-10-31T22:01:20.861Z,12.43
2022-10-31T22:03:49.082Z,12.43
2022-10-31T22:06:17.222Z,12.37
2022-10-31T22:08:44.987Z,12.36
2022-10-31T22:11:14.884Z,12.40
2022-10-31T22:13:43.786Z,12.38
2022-10-31T22:16:12.957Z,12.38
2022-10-31T22:18:42.784Z,12.39
2022-10-31T22:21:13.206Z,12.36
2022-10-31T22:23:41.345Z,12.32
2022-10-31T22:26:14.041Z,12.30
2022-10-31T22:28:42.418Z,12.32
2022-10-31T22:33:40.291Z,12.34
2022-10-31T22:36:12.858Z,12.36
2022-10-31T22:38:41.730Z,12.35
2022-10-31T22:41:11.015Z,12.33
2022-10-31T22:43:38.834Z,12.33
2022-10-31T22:46:08.317Z,12.31
2022-10-31T22:48:37.575Z,12.34
2022-10-31T22:51:06.391Z,12.30
2022-10-31T22:53:36.669Z,12.31
2022-10-31T22:56:05.182Z,12.25
2022-10-31T22:58:33.907Z,12.21
2022-10-31T23:01:06.772Z,12.23
2022-10-31T23:03:34.431Z,12.26
2022-10-31T23:06:03.269Z,12.27
2022-10-31T23:08:32.457Z,12.26
2022-10-31T23:11:01.352Z,12.23
2022-10-31T23:13:46.668Z,12.21
2022-10-31T23:16:18.243Z,12.23
2022-10-31T23:18:50.744Z,12.24
2022-10-31T23:21:32.434Z,12.21
2022-10-31T23:24:00.175Z,12.25
2022-10-31T23:26:46.613Z,12.25
2022-10-31T23:29:14.138Z,12.23
2022-10-31T23:31:41.682Z,12.20
2022-10-31T23:34:10.133Z,12.21
2022-10-31T23:36:37.651Z,12.21
2022-10-31T23:39:05.212Z,12.19
2022-10-31T23:41:34.081Z,12.18
2022-10-31T23:44:01.579Z,12.14
2022-10-31T23:46:29.158Z,12.17
2022-10-31T23:48:56.694Z,12.19
2022-10-31T23:51:24.182Z,12.20
2022-10-31T23:53:51.811Z,12.19
2022-10-31T23:56:19.335Z,12.18
2022-10-31T23:58:48.198Z,12.19
